sensor_id;sensor_type;location;lat;lon;timestamp;P1;durP1;ratioP1;P2;durP2;ratioP2
11588;SDS011;5850;51.360;12.362;2022-09-13T00:01:16;6.60;;;5.97;;
11588;SDS011;5850;51.360;12.362;2022-09-13T00:03:45;6.13;;;5.63;;
11588;SDS011;5850;51.360;12.362;2022-09-13T00:06:14;8.70;;;6.27;;
11588;SDS011;5850;51.360;12.362;2022-09-13T00:08:45;6.37;;;5.80;;
11588;SDS011;5850;51.360;12.362;2022-09-13T00:15:13;6.13;;;5.60;;
11588;SDS011;5850;51.360;12.362;2022-09-13T00:17:42;6.43;;;5.83;;
11588;SDS011;5850;51.360;12.362;2022-09-13T00:20:10;9.07;;;6.30;;
11588;SDS011;5850;51.360;12.362;2022-09-13T00:22:39;6.63;;;6.10;;
11588;SDS011;5850;51.360;12.362;2022-09-13T00:25:07;9.67;;;6.43;;
11588;SDS011;5850;51.360;12.362;2022-09-13T00:27:36;6.67;;;6.07;;
11588;SDS011;5850;51.360;12.362;2022-09-13T00:30:05;6.33;;;5.73;;
11588;SDS011;5850;51.360;12.362;2022-09-13T00:32:35;6.80;;;6.20;;
11588;SDS011;5850;51.360;12.362;2022-09-13T00:35:04;7.13;;;6.30;;
11588;SDS011;5850;51.360;12.362;2022-09-13T00:37:33;6.37;;;5.77;;
11588;SDS011;5850;51.360;12.362;2022-09-13T00:40:02;6.00;;;5.50;;
11588;SDS011;5850;51.360;12.362;2022-09-13T00:42:31;6.40;;;5.80;;
11588;SDS011;5850;51.360;12.362;2022-09-13T00:53:07;6.70;;;5.93;;
11588;SDS011;5850;51.360;12.362;2022-09-13T00:55:56;7.07;;;5.83;;
11588;SDS011;5850;51.360;12.362;2022-09-13T00:58:52;7.00;;;5.70;;
11588;SDS011;5850;51.360;12.362;2022-09-13T01:01:55;7.70;;;6.07;;
11588;SDS011;5850;51.360;12.362;2022-09-13T01:04:25;6.80;;;6.10;;
11588;SDS011;5850;51.360;12.362;2022-09-13T01:06:56;5.77;;;5.27;;
11588;SDS011;5850;51.360;12.362;2022-09-13T01:09:29;7.17;;;6.03;;
11588;SDS011;5850;51.360;12.362;2022-09-13T01:11:59;7.47;;;5.47;;
11588;SDS011;5850;51.360;12.362;2022-09-13T01:14:59;6.20;;;5.60;;
11588;SDS011;5850;51.360;12.362;2022-09-13T01:17:30;6.90;;;5.93;;
11588;SDS011;5850;51.360;12.362;2022-09-13T01:20:00;6.77;;;6.07;;
11588;SDS011;5850;51.360;12.362;2022-09-13T01:25:42;8.77;;;6.33;;
11588;SDS011;5850;51.360;12.362;2022-09-13T01:31:30;6.97;;;6.00;;
11588;SDS011;5850;51.360;12.362;2022-09-13T01:38:06;5.83;;;5.33;;
11588;SDS011;5850;51.360;12.362;2022-09-13T01:43:56;7.47;;;5.47;;
11588;SDS011;5850;51.360;12.362;2022-09-13T01:46:49;6.67;;;5.60;;
11588;SDS011;5850;51.360;12.362;2022-09-13T01:49:44;7.63;;;6.10;;
11588;SDS011;5850;51.360;12.362;2022-09-13T01:52:23;5.50;;;5.00;;
11588;SDS011;5850;51.360;12.362;2022-09-13T02:01:15;6.53;;;5.30;;
11588;SDS011;5850;51.360;12.362;2022-09-13T02:04:00;5.87;;;5.37;;
11588;SDS011;5850;51.360;12.362;2022-09-13T02:06:44;6.17;;;5.57;;
11588;SDS011;5850;51.360;12.362;2022-09-13T02:09:35;7.37;;;5.73;;
11588;SDS011;5850;51.360;12.362;2022-09-13T02:12:11;6.23;;;5.30;;
11588;SDS011;5850;51.360;12.362;2022-09-13T02:15:01;6.30;;;5.70;;
11588;SDS011;5850;51.360;12.362;2022-09-13T02:17:38;5.70;;;5.13;;
11588;SDS011;5850;51.360;12.362;2022-09-13T02:20:24;6.33;;;5.73;;
11588;SDS011;5850;51.360;12.362;2022-09-13T02:22:59;6.30;;;5.33;;
11588;SDS011;5850;51.360;12.362;2022-09-13T02:25:34;12.00;;;6.10;;
11588;SDS011;5850;51.360;12.362;2022-09-13T02:28:08;7.40;;;5.20;;
11588;SDS011;5850;51.360;12.362;2022-09-13T02:30:40;6.47;;;5.00;;
11588;SDS011;5850;51.360;12.362;2022-09-13T02:35:45;6.80;;;5.27;;
11588;SDS011;5850;51.360;12.362;2022-09-13T02:38:42;6.60;;;5.40;;
11588;SDS011;5850;51.360;12.362;2022-09-13T02:41:32;6.30;;;5.70;;
11588;SDS011;5850;51.360;12.362;2022-09-13T02:44:39;6.10;;;5.27;;
11588;SDS011;5850;51.360;12.362;2022-09-13T02:55:30;6.87;;;5.33;;
11588;SDS011;5850;51.360;12.362;2022-09-13T02:58:09;6.30;;;5.43;;
11588;SDS011;5850;51.360;12.362;2022-09-13T03:01:06;5.70;;;5.20;;
11588;SDS011;5850;51.360;12.362;2022-09-13T03:03:34;6.00;;;5.43;;
11588;SDS011;5850;51.360;12.362;2022-09-13T03:06:03;6.50;;;5.77;;
11588;SDS011;5850;51.360;12.362;2022-09-13T03:08:31;6.47;;;5.30;;
11588;SDS011;5850;51.360;12.362;2022-09-13T03:23:01;6.87;;;5.43;;
11588;SDS011;5850;51.360;12.362;2022-09-13T03:25:51;6.23;;;5.20;;
11588;SDS011;5850;51.360;12.362;2022-09-13T03:29:08;6.37;;;5.70;;
11588;SDS011;5850;51.360;12.362;2022-09-13T03:35:35;5.37;;;4.87;;
11588;SDS011;5850;51.360;12.362;2022-09-13T03:37:53;6.33;;;5.40;;
11588;SDS011;5850;51.360;12.362;2022-09-13T03:43:35;6.10;;;5.10;;
11588;SDS011;5850;51.360;12.362;2022-09-13T03:46:11;8.73;;;6.10;;
11588;SDS011;5850;51.360;12.362;2022-09-13T03:48:46;6.37;;;5.73;;
11588;SDS011;5850;51.360;12.362;2022-09-13T03:51:15;6.00;;;5.23;;
11588;SDS011;5850;51.360;12.362;2022-09-13T03:53:47;5.57;;;5.07;;
11588;SDS011;5850;51.360;12.362;2022-09-13T03:56:23;5.33;;;4.83;;
11588;SDS011;5850;51.360;12.362;2022-09-13T03:58:52;5.60;;;5.10;;
11588;SDS011;5850;51.360;12.362;2022-09-13T04:01:20;5.93;;;5.40;;
11588;SDS011;5850;51.360;12.362;2022-09-13T04:03:50;6.90;;;5.30;;
11588;SDS011;5850;51.360;12.362;2022-09-13T04:06:22;6.73;;;5.50;;
11588;SDS011;5850;51.360;12.362;2022-09-13T04:08:50;6.70;;;5.47;;
11588;SDS011;5850;51.360;12.362;2022-09-13T04:11:19;5.60;;;5.10;;
11588;SDS011;5850;51.360;12.362;2022-09-13T04:13:47;6.13;;;5.63;;
11588;SDS011;5850;51.360;12.362;2022-09-13T04:16:16;16.43;;;7.30;;
11588;SDS011;5850;51.360;12.362;2022-09-13T04:18:47;8.13;;;5.60;;
11588;SDS011;5850;51.360;12.362;2022-09-13T04:21:15;6.00;;;5.40;;
11588;SDS011;5850;51.360;12.362;2022-09-13T04:23:48;6.23;;;5.47;;
11588;SDS011;5850;51.360;12.362;2022-09-13T04:26:16;7.40;;;5.37;;
11588;SDS011;5850;51.360;12.362;2022-09-13T04:28:45;8.20;;;5.43;;
11588;SDS011;5850;51.360;12.362;2022-09-13T04:31:17;6.83;;;5.23;;
11588;SDS011;5850;51.360;12.362;2022-09-13T04:33:45;8.63;;;5.33;;
11588;SDS011;5850;51.360;12.362;2022-09-13T04:36:15;7.17;;;5.80;;
11588;SDS011;5850;51.360;12.362;2022-09-13T04:38:45;5.90;;;5.37;;
11588;SDS011;5850;51.360;12.362;2022-09-13T04:41:13;6.13;;;5.50;;
11588;SDS011;5850;51.360;12.362;2022-09-13T04:43:42;6.20;;;5.60;;
11588;SDS011;5850;51.360;12.362;2022-09-13T04:46:15;7.57;;;5.70;;
11588;SDS011;5850;51.360;12.362;2022-09-13T04:48:50;8.47;;;5.17;;
11588;SDS011;5850;51.360;12.362;2022-09-13T04:51:19;7.97;;;5.40;;
11588;SDS011;5850;51.360;12.362;2022-09-13T04:53:52;7.87;;;5.53;;
11588;SDS011;5850;51.360;12.362;2022-09-13T04:56:23;7.20;;;5.70;;
11588;SDS011;5850;51.360;12.362;2022-09-13T04:58:53;7.33;;;5.73;;
11588;SDS011;5850;51.360;12.362;2022-09-13T05:01:22;8.07;;;5.90;;
11588;SDS011;5850;51.360;12.362;2022-09-13T05:03:53;6.57;;;5.20;;
11588;SDS011;5850;51.360;12.362;2022-09-13T05:06:22;7.43;;;5.93;;
11588;SDS011;5850;51.360;12.362;2022-09-13T05:08:53;6.17;;;5.57;;
11588;SDS011;5850;51.360;12.362;2022-09-13T05:11:26;6.80;;;5.73;;
11588;SDS011;5850;51.360;12.362;2022-09-13T05:13:55;8.60;;;5.77;;
11588;SDS011;5850;51.360;12.362;2022-09-13T05:16:28;8.93;;;5.93;;
11588;SDS011;5850;51.360;12.362;2022-09-13T05:18:59;6.47;;;5.87;;
11588;SDS011;5850;51.360;12.362;2022-09-13T05:21:28;7.50;;;5.93;;
11588;SDS011;5850;51.360;12.362;2022-09-13T05:24:00;9.53;;;6.10;;
11588;SDS011;5850;51.360;12.362;2022-09-13T05:26:29;6.43;;;5.73;;
11588;SDS011;5850;51.360;12.362;2022-09-13T05:28:58;8.70;;;6.07;;
11588;SDS011;5850;51.360;12.362;2022-09-13T05:31:28;7.27;;;5.90;;
11588;SDS011;5850;51.360;12.362;2022-09-13T05:34:06;8.30;;;6.03;;
11588;SDS011;5850;51.360;12.362;2022-09-13T05:36:40;6.73;;;5.93;;
11588;SDS011;5850;51.360;12.362;2022-09-13T05:39:12;7.80;;;5.77;;
11588;SDS011;5850;51.360;12.362;2022-09-13T05:42:03;7.80;;;5.53;;
11588;SDS011;5850;51.360;12.362;2022-09-13T05:44:31;8.20;;;5.97;;
11588;SDS011;5850;51.360;12.362;2022-09-13T05:47:00;5.87;;;5.20;;
11588;SDS011;5850;51.360;12.362;2022-09-13T05:49:28;6.00;;;5.40;;
11588;SDS011;5850;51.360;12.362;2022-09-13T05:51:57;6.07;;;5.50;;
11588;SDS011;5850;51.360;12.362;2022-09-13T05:54:25;6.53;;;5.83;;
11588;SDS011;5850;51.360;12.362;2022-09-13T05:56:54;6.63;;;5.97;;
11588;SDS011;5850;51.360;12.362;2022-09-13T05:59:28;8.17;;;5.87;;
11588;SDS011;5850;51.360;12.362;2022-09-13T06:01:57;7.50;;;5.13;;
11588;SDS011;5850;51.360;12.362;2022-09-13T06:04:25;6.17;;;5.57;;
11588;SDS011;5850;51.360;12.362;2022-09-13T06:06:54;6.83;;;6.13;;
11588;SDS011;5850;51.360;12.362;2022-09-13T06:09:23;9.03;;;5.63;;
11588;SDS011;5850;51.360;12.362;2022-09-13T06:11:52;6.53;;;5.50;;
11588;SDS011;5850;51.360;12.362;2022-09-13T06:14:20;6.50;;;5.50;;
11588;SDS011;5850;51.360;12.362;2022-09-13T06:16:49;5.67;;;5.07;;
11588;SDS011;5850;51.360;12.362;2022-09-13T06:19:17;6.20;;;5.60;;
11588;SDS011;5850;51.360;12.362;2022-09-13T06:21:46;7.87;;;6.37;;
11588;SDS011;5850;51.360;12.362;2022-09-13T06:24:17;7.53;;;5.37;;
11588;SDS011;5850;51.360;12.362;2022-09-13T06:26:45;6.57;;;5.63;;
11588;SDS011;5850;51.360;12.362;2022-09-13T06:29:14;6.60;;;6.00;;
11588;SDS011;5850;51.360;12.362;2022-09-13T06:31:42;7.73;;;6.07;;
11588;SDS011;5850;51.360;12.362;2022-09-13T06:34:11;5.87;;;5.33;;
11588;SDS011;5850;51.360;12.362;2022-09-13T06:36:41;8.10;;;6.43;;
11588;SDS011;5850;51.360;12.362;2022-09-13T06:39:12;7.17;;;6.17;;
11588;SDS011;5850;51.360;12.362;2022-09-13T06:41:41;6.80;;;6.20;;
11588;SDS011;5850;51.360;12.362;2022-09-13T06:44:09;8.33;;;6.77;;
11588;SDS011;5850;51.360;12.362;2022-09-13T06:46:39;8.03;;;7.17;;
11588;SDS011;5850;51.360;12.362;2022-09-13T06:49:08;10.17;;;6.97;;
11588;SDS011;5850;51.360;12.362;2022-09-13T06:51:37;7.50;;;6.70;;
11588;SDS011;5850;51.360;12.362;2022-09-13T06:54:05;7.80;;;6.03;;
11588;SDS011;5850;51.360;12.362;2022-09-13T06:56:36;7.77;;;6.70;;
11588;SDS011;5850;51.360;12.362;2022-09-13T06:59:08;8.10;;;7.30;;
11588;SDS011;5850;51.360;12.362;2022-09-13T07:01:39;7.77;;;6.97;;
11588;SDS011;5850;51.360;12.362;2022-09-13T07:04:11;9.10;;;7.27;;
11588;SDS011;5850;51.360;12.362;2022-09-13T07:06:45;9.97;;;6.83;;
11588;SDS011;5850;51.360;12.362;2022-09-13T07:09:19;8.97;;;7.63;;
11588;SDS011;5850;51.360;12.362;2022-09-13T07:11:49;8.57;;;7.57;;
11588;SDS011;5850;51.360;12.362;2022-09-13T07:14:21;8.40;;;7.60;;
11588;SDS011;5850;51.360;12.362;2022-09-13T07:16:52;8.70;;;7.53;;
11588;SDS011;5850;51.360;12.362;2022-09-13T07:19:22;11.43;;;7.80;;
11588;SDS011;5850;51.360;12.362;2022-09-13T07:21:53;10.43;;;7.67;;
11588;SDS011;5850;51.360;12.362;2022-09-13T07:24:23;9.23;;;7.20;;
11588;SDS011;5850;51.360;12.362;2022-09-13T07:26:52;10.57;;;8.23;;
11588;SDS011;5850;51.360;12.362;2022-09-13T07:29:21;8.80;;;7.90;;
11588;SDS011;5850;51.360;12.362;2022-09-13T07:31:51;10.03;;;8.30;;
11588;SDS011;5850;51.360;12.362;2022-09-13T07:34:22;8.90;;;7.87;;
11588;SDS011;5850;51.360;12.362;2022-09-13T07:36:52;8.97;;;7.37;;
11588;SDS011;5850;51.360;12.362;2022-09-13T07:39:21;10.13;;;8.07;;
11588;SDS011;5850;51.360;12.362;2022-09-13T07:41:52;9.37;;;8.17;;
11588;SDS011;5850;51.360;12.362;2022-09-13T07:44:21;12.17;;;8.07;;
11588;SDS011;5850;51.360;12.362;2022-09-13T07:46:49;9.10;;;7.43;;
11588;SDS011;5850;51.360;12.362;2022-09-13T07:49:18;9.83;;;7.73;;
11588;SDS011;5850;51.360;12.362;2022-09-13T07:51:46;9.13;;;7.50;;
11588;SDS011;5850;51.360;12.362;2022-09-13T07:54:17;8.13;;;7.33;;
11588;SDS011;5850;51.360;12.362;2022-09-13T07:56:46;8.63;;;7.67;;
11588;SDS011;5850;51.360;12.362;2022-09-13T07:59:17;9.60;;;8.37;;
11588;SDS011;5850;51.360;12.362;2022-09-13T08:01:46;8.07;;;7.23;;
11588;SDS011;5850;51.360;12.362;2022-09-13T08:04:18;11.33;;;7.50;;
11588;SDS011;5850;51.360;12.362;2022-09-13T08:06:51;8.80;;;7.57;;
11588;SDS011;5850;51.360;12.362;2022-09-13T08:09:19;8.70;;;7.63;;
11588;SDS011;5850;51.360;12.362;2022-09-13T08:11:49;9.37;;;7.90;;
11588;SDS011;5850;51.360;12.362;2022-09-13T08:14:27;8.03;;;7.23;;
11588;SDS011;5850;51.360;12.362;2022-09-13T08:16:56;8.17;;;6.87;;
11588;SDS011;5850;51.360;12.362;2022-09-13T08:19:25;8.80;;;7.30;;
11588;SDS011;5850;51.360;12.362;2022-09-13T08:21:53;8.97;;;6.97;;
11588;SDS011;5850;51.360;12.362;2022-09-13T08:24:22;9.00;;;8.10;;
11588;SDS011;5850;51.360;12.362;2022-09-13T08:26:53;9.20;;;5.97;;
11588;SDS011;5850;51.360;12.362;2022-09-13T08:29:21;8.37;;;7.03;;
11588;SDS011;5850;51.360;12.362;2022-09-13T08:31:50;8.97;;;7.00;;
11588;SDS011;5850;51.360;12.362;2022-09-13T08:34:24;7.40;;;6.37;;
11588;SDS011;5850;51.360;12.362;2022-09-13T08:36:52;7.03;;;6.37;;
11588;SDS011;5850;51.360;12.362;2022-09-13T08:39:21;6.97;;;6.27;;
11588;SDS011;5850;51.360;12.362;2022-09-13T08:42:52;7.00;;;5.97;;
11588;SDS011;5850;51.360;12.362;2022-09-13T08:45:13;6.10;;;5.60;;
11588;SDS011;5850;51.360;12.362;2022-09-13T08:48:01;6.00;;;5.40;;
11588;SDS011;5850;51.360;12.362;2022-09-13T08:50:43;7.13;;;6.43;;
11588;SDS011;5850;51.360;12.362;2022-09-13T09:06:41;6.47;;;5.80;;
11588;SDS011;5850;51.360;12.362;2022-09-13T09:09:15;6.27;;;5.67;;
11588;SDS011;5850;51.360;12.362;2022-09-13T09:11:47;6.53;;;5.93;;
11588;SDS011;5850;51.360;12.362;2022-09-13T09:14:29;6.77;;;6.00;;
11588;SDS011;5850;51.360;12.362;2022-09-13T09:17:05;6.13;;;5.53;;
11588;SDS011;5850;51.360;12.362;2022-09-13T09:19:42;7.10;;;5.73;;
11588;SDS011;5850;51.360;12.362;2022-09-13T09:22:20;5.80;;;5.20;;
11588;SDS011;5850;51.360;12.362;2022-09-13T09:24:50;8.87;;;5.13;;
11588;SDS011;5850;51.360;12.362;2022-09-13T09:27:22;6.37;;;5.47;;
11588;SDS011;5850;51.360;12.362;2022-09-13T09:29:53;7.17;;;6.47;;
11588;SDS011;5850;51.360;12.362;2022-09-13T09:35:19;6.67;;;5.10;;
11588;SDS011;5850;51.360;12.362;2022-09-13T09:40:52;5.57;;;5.07;;
11588;SDS011;5850;51.360;12.362;2022-09-13T09:43:28;10.63;;;5.23;;
11588;SDS011;5850;51.360;12.362;2022-09-13T09:46:04;5.27;;;4.57;;
11588;SDS011;5850;51.360;12.362;2022-09-13T09:48:37;5.20;;;4.70;;
11588;SDS011;5850;51.360;12.362;2022-09-13T09:51:19;4.50;;;4.10;;
11588;SDS011;5850;51.360;12.362;2022-09-13T09:53:52;5.13;;;4.27;;
11588;SDS011;5850;51.360;12.362;2022-09-13T09:56:31;4.43;;;4.13;;
11588;SDS011;5850;51.360;12.362;2022-09-13T09:59:01;4.60;;;4.20;;
11588;SDS011;5850;51.360;12.362;2022-09-13T10:01:31;4.97;;;4.53;;
11588;SDS011;5850;51.360;12.362;2022-09-13T10:04:06;4.57;;;4.17;;
11588;SDS011;5850;51.360;12.362;2022-09-13T10:06:47;3.80;;;3.20;;
11588;SDS011;5850;51.360;12.362;2022-09-13T10:09:19;3.93;;;3.53;;
11588;SDS011;5850;51.360;12.362;2022-09-13T10:14:40;3.77;;;3.47;;
11588;SDS011;5850;51.360;12.362;2022-09-13T10:17:16;3.43;;;3.13;;
11588;SDS011;5850;51.360;12.362;2022-09-13T10:19:53;2.97;;;2.77;;
11588;SDS011;5850;51.360;12.362;2022-09-13T10:22:57;3.00;;;2.80;;
11588;SDS011;5850;51.360;12.362;2022-09-13T10:25:43;4.47;;;4.07;;
11588;SDS011;5850;51.360;12.362;2022-09-13T10:28:33;3.90;;;3.60;;
11588;SDS011;5850;51.360;12.362;2022-09-13T10:31:44;4.13;;;3.23;;
11588;SDS011;5850;51.360;12.362;2022-09-13T10:34:25;3.73;;;3.43;;
11588;SDS011;5850;51.360;12.362;2022-09-13T10:37:17;3.03;;;2.77;;
11588;SDS011;5850;51.360;12.362;2022-09-13T10:39:52;3.43;;;3.00;;
11588;SDS011;5850;51.360;12.362;2022-09-13T10:42:23;3.00;;;2.70;;
11588;SDS011;5850;51.360;12.362;2022-09-13T10:45:03;3.17;;;2.87;;
11588;SDS011;5850;51.360;12.362;2022-09-13T10:48:18;3.50;;;3.20;;
11588;SDS011;5850;51.360;12.362;2022-09-13T10:50:32;4.00;;;3.13;;
11588;SDS011;5850;51.360;12.362;2022-09-13T10:53:02;3.23;;;2.57;;
11588;SDS011;5850;51.360;12.362;2022-09-13T10:55:33;2.80;;;2.60;;
11588;SDS011;5850;51.360;12.362;2022-09-13T11:00:34;2.83;;;2.60;;
11588;SDS011;5850;51.360;12.362;2022-09-13T11:03:43;3.40;;;3.10;;
11588;SDS011;5850;51.360;12.362;2022-09-13T11:12:40;2.97;;;2.77;;
11588;SDS011;5850;51.360;12.362;2022-09-13T11:21:22;3.93;;;2.97;;
11588;SDS011;5850;51.360;12.362;2022-09-13T11:27:07;2.80;;;2.50;;
11588;SDS011;5850;51.360;12.362;2022-09-13T11:30:04;3.60;;;3.30;;
11588;SDS011;5850;51.360;12.362;2022-09-13T11:51:04;3.40;;;3.10;;
11588;SDS011;5850;51.360;12.362;2022-09-13T11:56:26;3.07;;;2.77;;
11588;SDS011;5850;51.360;12.362;2022-09-13T12:01:44;2.60;;;2.40;;
11588;SDS011;5850;51.360;12.362;2022-09-13T12:04:22;4.20;;;2.87;;
11588;SDS011;5850;51.360;12.362;2022-09-13T12:07:00;3.97;;;3.50;;
11588;SDS011;5850;51.360;12.362;2022-09-13T12:09:37;2.90;;;2.70;;
11588;SDS011;5850;51.360;12.362;2022-09-13T12:12:18;3.47;;;2.97;;
11588;SDS011;5850;51.360;12.362;2022-09-13T12:14:53;3.20;;;2.90;;
11588;SDS011;5850;51.360;12.362;2022-09-13T12:17:34;5.97;;;4.17;;
11588;SDS011;5850;51.360;12.362;2022-09-13T12:20:13;4.33;;;3.07;;
11588;SDS011;5850;51.360;12.362;2022-09-13T12:22:48;3.40;;;3.10;;
11588;SDS011;5850;51.360;12.362;2022-09-13T12:25:18;3.23;;;3.03;;
11588;SDS011;5850;51.360;12.362;2022-09-13T12:28:01;3.27;;;2.97;;
11588;SDS011;5850;51.360;12.362;2022-09-13T12:30:43;3.57;;;3.27;;
11588;SDS011;5850;51.360;12.362;2022-09-13T12:33:24;3.20;;;2.90;;
11588;SDS011;5850;51.360;12.362;2022-09-13T12:36:00;3.17;;;2.87;;
11588;SDS011;5850;51.360;12.362;2022-09-13T12:39:06;2.73;;;2.53;;
11588;SDS011;5850;51.360;12.362;2022-09-13T12:44:41;3.40;;;2.70;;
11588;SDS011;5850;51.360;12.362;2022-09-13T12:50:51;2.47;;;2.27;;
11588;SDS011;5850;51.360;12.362;2022-09-13T13:03:16;2.30;;;2.10;;
11588;SDS011;5850;51.360;12.362;2022-09-13T13:05:46;2.60;;;2.40;;
11588;SDS011;5850;51.360;12.362;2022-09-13T13:10:59;2.37;;;2.07;;
11588;SDS011;5850;51.360;12.362;2022-09-13T13:16:36;3.60;;;2.30;;
11588;SDS011;5850;51.360;12.362;2022-09-13T13:19:26;2.90;;;2.43;;
11588;SDS011;5850;51.360;12.362;2022-09-13T13:36:42;2.30;;;2.10;;
11588;SDS011;5850;51.360;12.362;2022-09-13T13:55:41;2.60;;;2.23;;
11588;SDS011;5850;51.360;12.362;2022-09-13T14:00:47;3.60;;;2.53;;
11588;SDS011;5850;51.360;12.362;2022-09-13T14:03:26;3.50;;;2.60;;
11588;SDS011;5850;51.360;12.362;2022-09-13T14:06:07;2.50;;;2.30;;
11588;SDS011;5850;51.360;12.362;2022-09-13T14:09:05;2.40;;;2.20;;
11588;SDS011;5850;51.360;12.362;2022-09-13T14:17:51;3.67;;;2.40;;
11588;SDS011;5850;51.360;12.362;2022-09-13T14:21:04;3.77;;;2.30;;
11588;SDS011;5850;51.360;12.362;2022-09-13T14:23:47;3.73;;;2.87;;
11588;SDS011;5850;51.360;12.362;2022-09-13T14:26:15;3.27;;;2.27;;
11588;SDS011;5850;51.360;12.362;2022-09-13T14:28:44;2.87;;;2.50;;
11588;SDS011;5850;51.360;12.362;2022-09-13T14:31:16;3.03;;;2.33;;
11588;SDS011;5850;51.360;12.362;2022-09-13T14:33:46;2.77;;;2.40;;
11588;SDS011;5850;51.360;12.362;2022-09-13T14:36:16;3.37;;;2.53;;
11588;SDS011;5850;51.360;12.362;2022-09-13T14:38:50;4.33;;;2.33;;
11588;SDS011;5850;51.360;12.362;2022-09-13T14:41:32;2.47;;;2.27;;
11588;SDS011;5850;51.360;12.362;2022-09-13T14:44:14;2.53;;;2.33;;
11588;SDS011;5850;51.360;12.362;2022-09-13T14:47:00;3.83;;;2.77;;
11588;SDS011;5850;51.360;12.362;2022-09-13T14:50:20;2.37;;;2.10;;
11588;SDS011;5850;51.360;12.362;2022-09-13T14:53:04;3.00;;;2.77;;
11588;SDS011;5850;51.360;12.362;2022-09-13T14:55:39;3.07;;;2.40;;
11588;SDS011;5850;51.360;12.362;2022-09-13T14:58:22;2.30;;;2.20;;
11588;SDS011;5850;51.360;12.362;2022-09-13T15:00:59;3.20;;;2.20;;
11588;SDS011;5850;51.360;12.362;2022-09-13T15:03:32;3.67;;;2.27;;
11588;SDS011;5850;51.360;12.362;2022-09-13T15:06:01;2.60;;;2.40;;
11588;SDS011;5850;51.360;12.362;2022-09-13T15:11:00;2.03;;;1.93;;
11588;SDS011;5850;51.360;12.362;2022-09-13T15:13:31;3.57;;;2.70;;
11588;SDS011;5850;51.360;12.362;2022-09-13T15:16:22;2.97;;;2.70;;
11588;SDS011;5850;51.360;12.362;2022-09-13T15:22:31;3.03;;;2.53;;
11588;SDS011;5850;51.360;12.362;2022-09-13T15:25:00;2.67;;;2.40;;
11588;SDS011;5850;51.360;12.362;2022-09-13T15:27:30;3.40;;;2.77;;
11588;SDS011;5850;51.360;12.362;2022-09-13T15:30:20;6.53;;;3.97;;
11588;SDS011;5850;51.360;12.362;2022-09-13T15:35:42;5.10;;;3.57;;
11588;SDS011;5850;51.360;12.362;2022-09-13T15:38:28;4.60;;;4.03;;
11588;SDS011;5850;51.360;12.362;2022-09-13T15:43:37;6.50;;;4.50;;
11588;SDS011;5850;51.360;12.362;2022-09-13T15:46:08;6.57;;;4.17;;
11588;SDS011;5850;51.360;12.362;2022-09-13T15:48:43;7.13;;;4.90;;
11588;SDS011;5850;51.360;12.362;2022-09-13T15:51:24;7.37;;;4.57;;
11588;SDS011;5850;51.360;12.362;2022-09-13T15:53:53;5.70;;;4.33;;
11588;SDS011;5850;51.360;12.362;2022-09-13T15:56:24;4.90;;;3.60;;
11588;SDS011;5850;51.360;12.362;2022-09-13T15:59:15;6.60;;;3.63;;
11588;SDS011;5850;51.360;12.362;2022-09-13T16:01:47;5.93;;;3.97;;
11588;SDS011;5850;51.360;12.362;2022-09-13T16:04:17;4.50;;;4.10;;
11588;SDS011;5850;51.360;12.362;2022-09-13T16:06:46;4.73;;;4.13;;
11588;SDS011;5850;51.360;12.362;2022-09-13T16:09:19;6.50;;;3.60;;
11588;SDS011;5850;51.360;12.362;2022-09-13T16:11:50;5.50;;;4.03;;
11588;SDS011;5850;51.360;12.362;2022-09-13T16:14:18;5.67;;;3.70;;
11588;SDS011;5850;51.360;12.362;2022-09-13T16:16:47;3.73;;;3.43;;
11588;SDS011;5850;51.360;12.362;2022-09-13T16:19:18;6.90;;;4.10;;
11588;SDS011;5850;51.360;12.362;2022-09-13T16:21:48;7.03;;;4.63;;
11588;SDS011;5850;51.360;12.362;2022-09-13T16:24:17;5.50;;;4.10;;
11588;SDS011;5850;51.360;12.362;2022-09-13T16:26:45;4.00;;;3.60;;
11588;SDS011;5850;51.360;12.362;2022-09-13T16:29:13;4.43;;;4.03;;
11588;SDS011;5850;51.360;12.362;2022-09-13T16:31:42;6.50;;;4.20;;
11588;SDS011;5850;51.360;12.362;2022-09-13T16:34:10;7.23;;;4.50;;
11588;SDS011;5850;51.360;12.362;2022-09-13T16:36:39;6.30;;;5.63;;
11588;SDS011;5850;51.360;12.362;2022-09-13T16:39:07;7.27;;;4.43;;
11588;SDS011;5850;51.360;12.362;2022-09-13T16:41:37;5.97;;;4.80;;
11588;SDS011;5850;51.360;12.362;2022-09-13T16:44:06;4.13;;;3.73;;
11588;SDS011;5850;51.360;12.362;2022-09-13T16:46:34;4.17;;;3.77;;
11588;SDS011;5850;51.360;12.362;2022-09-13T16:49:03;5.80;;;4.33;;
11588;SDS011;5850;51.360;12.362;2022-09-13T16:51:32;6.27;;;4.23;;
11588;SDS011;5850;51.360;12.362;2022-09-13T16:54:00;5.70;;;4.07;;
11588;SDS011;5850;51.360;12.362;2022-09-13T16:56:29;5.97;;;4.30;;
11588;SDS011;5850;51.360;12.362;2022-09-13T16:58:57;4.30;;;3.67;;
11588;SDS011;5850;51.360;12.362;2022-09-13T17:01:26;4.90;;;3.80;;
11588;SDS011;5850;51.360;12.362;2022-09-13T17:03:56;5.87;;;4.27;;
11588;SDS011;5850;51.360;12.362;2022-09-13T17:06:25;4.83;;;3.87;;
11588;SDS011;5850;51.360;12.362;2022-09-13T17:08:58;6.53;;;3.33;;
11588;SDS011;5850;51.360;12.362;2022-09-13T17:11:33;5.10;;;4.03;;
11588;SDS011;5850;51.360;12.362;2022-09-13T17:14:04;4.63;;;3.77;;
11588;SDS011;5850;51.360;12.362;2022-09-13T17:19:11;5.00;;;4.47;;
11588;SDS011;5850;51.360;12.362;2022-09-13T17:21:45;6.13;;;4.60;;
11588;SDS011;5850;51.360;12.362;2022-09-13T17:24:14;4.30;;;3.90;;
11588;SDS011;5850;51.360;12.362;2022-09-13T17:26:43;4.40;;;4.00;;
11588;SDS011;5850;51.360;12.362;2022-09-13T17:29:13;7.60;;;4.60;;
11588;SDS011;5850;51.360;12.362;2022-09-13T17:31:41;5.73;;;3.83;;
11588;SDS011;5850;51.360;12.362;2022-09-13T17:34:11;4.40;;;3.93;;
11588;SDS011;5850;51.360;12.362;2022-09-13T17:36:39;4.40;;;4.00;;
11588;SDS011;5850;51.360;12.362;2022-09-13T17:39:08;5.30;;;4.40;;
11588;SDS011;5850;51.360;12.362;2022-09-13T17:41:37;5.77;;;4.60;;
11588;SDS011;5850;51.360;12.362;2022-09-13T17:44:05;5.33;;;4.83;;
11588;SDS011;5850;51.360;12.362;2022-09-13T17:46:33;6.40;;;5.10;;
11588;SDS011;5850;51.360;12.362;2022-09-13T17:49:03;6.20;;;5.20;;
11588;SDS011;5850;51.360;12.362;2022-09-13T17:51:31;5.63;;;4.87;;
11588;SDS011;5850;51.360;12.362;2022-09-13T17:54:02;6.13;;;5.10;;
11588;SDS011;5850;51.360;12.362;2022-09-13T17:56:36;5.57;;;4.63;;
11588;SDS011;5850;51.360;12.362;2022-09-13T17:59:15;4.57;;;4.13;;
11588;SDS011;5850;51.360;12.362;2022-09-13T18:01:46;6.07;;;4.17;;
11588;SDS011;5850;51.360;12.362;2022-09-13T18:04:17;5.60;;;4.70;;
11588;SDS011;5850;51.360;12.362;2022-09-13T18:06:49;7.33;;;4.60;;
11588;SDS011;5850;51.360;12.362;2022-09-13T18:09:18;6.53;;;4.27;;
11588;SDS011;5850;51.360;12.362;2022-09-13T18:11:47;4.63;;;4.20;;
11588;SDS011;5850;51.360;12.362;2022-09-13T18:14:16;5.17;;;4.43;;
11588;SDS011;5850;51.360;12.362;2022-09-13T18:16:45;8.17;;;4.60;;
11588;SDS011;5850;51.360;12.362;2022-09-13T18:19:21;6.67;;;5.00;;
11588;SDS011;5850;51.360;12.362;2022-09-13T18:22:09;5.93;;;4.63;;
11588;SDS011;5850;51.360;12.362;2022-09-13T18:24:38;5.63;;;5.00;;
11588;SDS011;5850;51.360;12.362;2022-09-13T18:27:06;6.40;;;5.30;;
11588;SDS011;5850;51.360;12.362;2022-09-13T18:29:35;7.03;;;5.20;;
11588;SDS011;5850;51.360;12.362;2022-09-13T18:32:03;7.27;;;5.30;;
11588;SDS011;5850;51.360;12.362;2022-09-13T18:34:32;7.00;;;5.10;;
11588;SDS011;5850;51.360;12.362;2022-09-13T18:37:00;6.23;;;4.73;;
11588;SDS011;5850;51.360;12.362;2022-09-13T18:39:29;6.57;;;5.03;;
11588;SDS011;5850;51.360;12.362;2022-09-13T18:41:57;6.63;;;4.97;;
11588;SDS011;5850;51.360;12.362;2022-09-13T18:44:26;6.60;;;5.57;;
11588;SDS011;5850;51.360;12.362;2022-09-13T18:46:55;7.40;;;5.03;;
11588;SDS011;5850;51.360;12.362;2022-09-13T18:49:25;6.83;;;5.03;;
11588;SDS011;5850;51.360;12.362;2022-09-13T18:51:53;6.00;;;5.20;;